Time;durP1;ratioP1;P1;durP2;ratioP2;P2;SDS_P1;SDS_P2;PMS_P1;PMS_P2;Temp;Humidity;BMP_temperature;BMP_pressure;BME280_temperature;BME280_humidity;BME280_pressure;Samples;Min_cycle;Max_cycle;Signal;HPM_P1;HPM_P2
2022/01/18 00:00:48;;;;;;;13.88;2.95;;;7.70;99.90;;;;;;5028732;28;20021;-73
2022/01/18 00:03:14;;;;;;;16.50;3.03;;;7.60;99.90;;;;;;5016403;28;20085;-73
2022/01/18 00:05:43;;;;;;;17.15;2.97;;;7.60;99.90;;;;;;5035959;28;20033;-73
2022/01/18 00:08:09;;;;;;;17.00;2.63;;;7.60;99.90;;;;;;5023892;28;20097;-72
2022/01/18 00:10:34;;;;;;;27.17;3.55;;;7.60;99.90;;;;;;5030190;28;20018;-72
2022/01/18 00:20:50;;;;;;;20.45;3.05;;;7.70;99.90;;;;;;5016678;28;20080;-73
2022/01/18 00:23:16;;;;;;;19.10;3.17;;;7.70;99.90;;;;;;5016030;28;20022;-73
2022/01/18 00:25:45;;;;;;;23.13;3.80;;;7.70;99.90;;;;;;5015467;28;20475;-73
2022/01/18 00:28:12;;;;;;;14.48;3.13;;;7.70;99.90;;;;;;5015103;28;20118;-73
2022/01/18 00:31:27;;;;;;;18.95;3.97;;;7.70;99.90;;;;;;5014448;28;20459;-73
2022/01/18 00:33:54;;;;;;;18.90;3.28;;;7.60;99.90;;;;;;5013636;28;20084;-73
2022/01/18 00:39:07;;;;;;;12.52;2.67;;;7.60;99.90;;;;;;5014737;28;20041;-73
2022/01/18 00:41:33;;;;;;;17.85;3.53;;;7.60;99.90;;;;;;5014250;28;20040;-73
2022/01/18 00:43:59;;;;;;;21.08;4.43;;;7.60;99.90;;;;;;5014002;28;20053;-73
2022/01/18 00:46:24;;;;;;;19.90;3.70;;;7.60;99.90;;;;;;4996423;28;20440;-72
2022/01/18 00:48:56;;;;;;;17.92;3.00;;;7.60;99.90;;;;;;5014058;28;20034;-72
2022/01/18 00:51:21;;;;;;;;;;;7.60;99.90;;;;;;5013608;28;20052;-73
2022/01/18 00:53:47;;;;;;;17.38;3.00;;;7.60;99.90;;;;;;5013647;28;19914;-73
2022/01/18 00:56:26;;;;;;;16.88;2.78;;;7.60;99.90;;;;;;5013954;28;20030;-73
2022/01/18 00:58:53;;;;;;;24.17;3.67;;;7.50;99.90;;;;;;5014184;28;20491;-73
2022/01/18 01:01:22;;;;;;;15.98;3.20;;;7.50;99.90;;;;;;5014054;28;20030;-73
2022/01/18 01:03:48;;;;;;;18.80;3.65;;;7.50;99.90;;;;;;5013820;28;20097;-73
2022/01/18 01:06:14;;;;;;;21.30;4.05;;;7.50;99.90;;;;;;5012570;28;20030;-74
2022/01/18 01:08:39;;;;;;;21.25;3.55;;;7.60;99.90;;;;;;5011399;28;20481;-72
2022/01/18 01:11:07;;;;;;;18.70;2.60;;;7.50;99.90;;;;;;4993609;28;20030;-73
2022/01/18 01:13:36;;;;;;;14.57;2.97;;;7.50;99.90;;;;;;5015265;28;20052;-72
2022/01/18 01:16:21;;;;;;;16.55;2.97;;;7.50;99.90;;;;;;5014533;28;20108;-73
2022/01/18 01:43:22;;;;;;;19.55;2.85;;;7.40;99.90;;;;;;5017331;28;20080;-73
2022/01/18 01:45:49;;;;;;;22.80;3.10;;;7.40;99.90;;;;;;5016031;28;20495;-73
2022/01/18 01:48:17;;;;;;;24.10;3.22;;;7.40;99.90;;;;;;5017286;28;20038;-73
2022/01/18 01:51:03;;;;;;;17.88;3.20;;;7.40;99.90;;;;;;5017184;28;20030;-73
2022/01/18 01:53:30;;;;;;;14.93;3.55;;;7.40;99.90;;;;;;5015574;28;20034;-73
2022/01/18 01:55:55;;;;;;;13.88;3.38;;;7.40;99.90;;;;;;5019569;28;20022;-73
2022/01/18 01:58:23;;;;;;;19.40;3.17;;;7.40;99.90;;;;;;5019953;28;20026;-74
2022/01/18 02:00:56;;;;;;;19.02;3.65;;;7.40;99.90;;;;;;5017238;28;20422;-73
2022/01/18 02:03:22;;;;;;;10.13;3.15;;;7.40;99.90;;;;;;5017053;28;20037;-73
2022/01/18 02:05:48;;;;;;;18.27;2.95;;;7.40;99.90;;;;;;5015536;28;20026;-73
2022/01/18 02:08:15;;;;;;;16.00;2.58;;;7.40;99.90;;;;;;5016778;28;20075;-73
2022/01/18 02:10:41;;;;;;;17.52;3.17;;;7.40;99.90;;;;;;5016671;28;20038;-73
2022/01/18 02:13:08;;;;;;;23.23;3.15;;;7.50;99.90;;;;;;5016463;28;20030;-73
2022/01/18 02:15:42;;;;;;;13.73;2.90;;;7.50;99.90;;;;;;5016637;28;20022;-73
2022/01/18 02:23:37;;;;;;;12.88;2.60;;;7.40;99.90;;;;;;5017060;28;20083;-73
2022/01/18 02:26:04;;;;;;;18.33;2.90;;;7.40;99.90;;;;;;5027305;28;20017;-72
2022/01/18 02:28:29;;;;;;;12.27;2.85;;;7.40;99.90;;;;;;5036214;28;20033;-73
2022/01/18 02:30:55;;;;;;;16.20;2.63;;;7.40;99.90;;;;;;5037471;28;20026;-72
2022/01/18 02:33:22;;;;;;;13.43;2.95;;;7.40;99.90;;;;;;5038568;28;20034;-72
2022/01/18 02:35:48;;;;;;;14.80;2.90;;;7.40;99.90;;;;;;5025705;28;20030;-72
2022/01/18 02:38:14;;;;;;;16.52;3.05;;;7.30;99.90;;;;;;5017421;28;20026;-73
2022/01/18 02:40:40;;;;;;;16.77;2.85;;;7.20;99.90;;;;;;5019249;28;20054;-73
2022/01/18 02:45:53;;;;;;;19.20;2.85;;;7.10;99.90;;;;;;5016188;28;20037;-73
2022/01/18 02:48:19;;;;;;;21.17;3.28;;;7.10;99.90;;;;;;5015923;28;20053;-73
2022/01/18 02:50:46;;;;;;;18.52;3.10;;;7.10;99.90;;;;;;5015395;28;20030;-73
2022/01/18 02:53:11;;;;;;;14.85;2.58;;;7.10;99.90;;;;;;5016208;28;20026;-73
2022/01/18 02:55:37;;;;;;;17.50;3.28;;;7.10;99.90;;;;;;5016080;28;20037;-74
2022/01/18 02:58:08;;;;;;;19.67;3.33;;;7.10;99.90;;;;;;5016339;28;20026;-73
2022/01/18 03:03:11;;;;;;;14.48;3.60;;;7.10;99.90;;;;;;5016090;28;20048;-73
2022/01/18 03:03:34;;;;;;;21.05;3.55;;;7.20;99.90;;;;;;5015797;28;20030;-73
2022/01/18 03:06:01;;;;;;;16.38;3.90;;;7.20;99.90;;;;;;5015990;28;20037;-73
2022/01/18 03:08:28;;;;;;;19.73;3.78;;;7.10;99.90;;;;;;5015644;28;20021;-73
2022/01/18 03:10:54;;;;;;;31.92;4.72;;;7.10;99.90;;;;;;5015853;28;20033;-72
2022/01/18 03:13:20;;;;;;;19.25;4.35;;;7.20;99.90;;;;;;5014499;28;20403;-73
2022/01/18 03:15:45;;;;;;;29.38;4.80;;;7.20;99.90;;;;;;5014199;28;20029;-72
2022/01/18 03:18:11;;;;;;;22.10;4.05;;;7.20;99.90;;;;;;5015447;28;20022;-73
2022/01/18 03:20:38;;;;;;;20.15;4.50;;;7.20;99.90;;;;;;5015318;28;20022;-72
2022/01/18 03:23:13;;;;;;;29.88;5.60;;;7.20;99.90;;;;;;5015244;28;20387;-72
2022/01/18 03:25:51;;;;;;;37.17;7.00;;;7.20;99.90;;;;;;5014262;28;20026;-73
2022/01/18 03:28:16;;;;;;;25.48;6.38;;;7.20;99.90;;;;;;5014003;28;20038;-74
2022/01/18 03:30:46;;;;;;;25.98;5.85;;;7.20;99.90;;;;;;5015142;28;20471;-73
2022/01/18 03:33:15;;;;;;;33.85;7.63;;;7.20;99.90;;;;;;5015032;28;20022;-74
2022/01/18 03:35:41;;;;;;;26.08;5.88;;;7.20;99.90;;;;;;5015117;28;20022;-73
2022/01/18 03:38:09;;;;;;;37.83;5.60;;;7.20;99.90;;;;;;5015591;28;20053;-74
2022/01/18 03:40:35;;;;;;;36.65;6.07;;;7.20;99.90;;;;;;5015091;28;20088;-73
2022/01/18 03:43:02;;;;;;;20.38;4.82;;;7.30;99.90;;;;;;5015090;28;20049;-73
2022/01/18 03:45:31;;;;;;;26.63;5.63;;;7.20;99.90;;;;;;5015368;28;20019;-73
2022/01/18 03:48:01;;;;;;;22.45;5.80;;;7.30;99.90;;;;;;5014960;28;20491;-73
2022/01/18 03:50:27;;;;;;;31.23;5.80;;;7.30;99.90;;;;;;5015425;28;20060;-73
2022/01/18 03:52:53;;;;;;;21.35;4.80;;;7.30;99.90;;;;;;5014618;28;20053;-73
2022/01/18 03:55:21;;;;;;;16.58;3.80;;;7.30;99.90;;;;;;5014720;28;20076;-73
2022/01/18 03:57:48;;;;;;;33.47;5.22;;;7.30;99.90;;;;;;5014932;28;20029;-73
2022/01/18 04:00:19;;;;;;;25.00;5.00;;;7.30;99.90;;;;;;5015213;28;20022;-73
2022/01/18 04:02:44;;;;;;;;;;;7.30;99.90;;;;;;5014403;28;20030;-73
2022/01/18 04:05:10;;;;;;;26.20;5.15;;;7.30;99.90;;;;;;5014642;28;19905;-73
2022/01/18 04:07:36;;;;;;;17.55;4.60;;;7.30;99.90;;;;;;5017360;28;20033;-73
2022/01/18 04:10:03;;;;;;;30.13;5.13;;;7.40;99.90;;;;;;5017038;28;20029;-73
2022/01/18 04:12:29;;;;;;;28.58;5.43;;;7.40;99.90;;;;;;5014831;28;20077;-74
2022/01/18 04:14:55;;;;;;;29.80;6.07;;;7.30;99.90;;;;;;4996804;28;20483;-73
2022/01/18 04:28:13;;;;;;;36.75;6.68;;;7.50;99.90;;;;;;5014796;28;20029;-73
2022/01/18 04:30:39;;;;;;;34.92;7.32;;;7.40;99.90;;;;;;5014805;28;20399;-73
2022/01/18 04:33:04;;;;;;;34.83;7.60;;;7.40;99.90;;;;;;4996470;28;20026;-73
2022/01/18 04:35:30;;;;;;;39.13;7.32;;;7.40;99.90;;;;;;5014474;28;20038;-73
2022/01/18 04:37:55;;;;;;;35.22;7.10;;;7.40;99.90;;;;;;5014458;28;20026;-73
2022/01/18 04:40:27;;;;;;;33.15;7.28;;;7.40;99.90;;;;;;4996726;28;20391;-73
2022/01/18 04:50:48;;;;;;;35.75;6.47;;;7.40;99.90;;;;;;5024685;28;20033;-72
2022/01/18 04:53:13;;;;;;;35.00;6.68;;;7.40;99.90;;;;;;5021282;28;20038;-72
2022/01/18 04:55:39;;;;;;;34.67;7.05;;;7.40;99.90;;;;;;5022700;28;20033;-73
2022/01/18 04:58:04;;;;;;;38.75;7.43;;;7.40;99.90;;;;;;5021684;28;20030;-72
2022/01/18 05:00:30;;;;;;;40.30;6.88;;;7.50;99.90;;;;;;5070019;22;20041;-61
2022/01/18 05:02:55;;;;;;;42.10;7.47;;;7.50;99.90;;;;;;5073303;28;20024;-60
2022/01/18 05:05:26;;;;;;;47.58;8.07;;;7.50;99.90;;;;;;5073241;28;20082;-61
2022/01/18 05:07:55;;;;;;;33.92;6.18;;;7.50;99.90;;;;;;5073579;28;20025;-61
2022/01/18 05:10:23;;;;;;;46.92;8.38;;;7.50;99.90;;;;;;5073192;28;20652;-61
2022/01/18 05:12:52;;;;;;;42.17;7.82;;;7.50;99.90;;;;;;5054763;28;20028;-60
2022/01/18 05:15:38;;;;;;;44.03;6.55;;;7.50;99.90;;;;;;5072991;28;20039;-59
2022/01/18 05:23:04;;;;;;;29.42;8.10;;;7.50;99.90;;;;;;5073059;28;20390;-60
2022/01/18 05:25:31;;;;;;;45.83;7.38;;;7.50;99.90;;;;;;5073223;28;20052;-60
2022/01/18 05:27:58;;;;;;;42.53;6.63;;;7.50;99.90;;;;;;5072891;28;20540;-60
2022/01/18 05:30:24;;;;;;;36.80;7.97;;;7.50;99.90;;;;;;5072939;28;20476;-60
2022/01/18 05:32:49;;;;;;;28.13;6.25;;;7.50;99.90;;;;;;5072742;28;20423;-59
2022/01/18 05:35:15;;;;;;;41.85;6.88;;;7.50;99.90;;;;;;5073287;28;20108;-60
2022/01/18 05:37:41;;;;;;;33.85;6.07;;;7.50;99.90;;;;;;5073341;28;20104;-61
2022/01/18 05:40:07;;;;;;;36.83;7.28;;;7.40;99.90;;;;;;5073093;28;20107;-60
2022/01/18 05:42:33;;;;;;;37.78;10.05;;;7.50;99.90;;;;;;5073028;28;20025;-60
2022/01/18 05:44:58;;;;;;;47.80;7.75;;;7.50;99.90;;;;;;5072979;28;20070;-59
2022/01/18 05:47:24;;;;;;;41.13;6.43;;;7.40;99.90;;;;;;5072911;28;20029;-60
2022/01/18 05:49:50;;;;;;;36.00;8.55;;;7.40;99.90;;;;;;5054925;28;20117;-60
2022/01/18 05:52:16;;;;;;;34.42;5.82;;;7.40;99.90;;;;;;5072659;28;20489;-61
2022/01/18 05:54:41;;;;;;;31.52;6.55;;;7.40;99.90;;;;;;5072704;28;20027;-60
2022/01/18 05:57:07;;;;;;;35.58;6.68;;;7.50;99.90;;;;;;5073016;28;20056;-61
2022/01/18 05:59:38;;;;;;;54.20;8.82;;;7.40;99.90;;;;;;5073030;28;20033;-61
2022/01/18 06:02:16;;;;;;;39.90;6.25;;;7.40;99.90;;;;;;5054650;28;20021;-61
2022/01/18 06:07:26;;;;;;;41.35;7.05;;;7.50;99.90;;;;;;5072785;28;20515;-60
2022/01/18 06:09:53;;;;;;;48.42;7.10;;;7.40;99.90;;;;;;5072975;28;20025;-60
2022/01/18 06:12:20;;;;;;;28.23;6.70;;;7.40;99.90;;;;;;5072954;28;20021;-60
2022/01/18 06:14:46;;;;;;;44.50;5.93;;;7.40;99.90;;;;;;5072461;28;20044;-58
2022/01/18 06:17:11;;;;;;;42.35;7.20;;;7.40;99.90;;;;;;5072472;28;20063;-60
2022/01/18 06:19:37;;;;;;;40.72;6.38;;;7.40;99.90;;;;;;5072432;28;20056;-60
2022/01/18 06:22:03;;;;;;;42.30;7.75;;;7.40;99.90;;;;;;5072670;28;20442;-59
2022/01/18 06:24:29;;;;;;;36.10;6.82;;;7.40;99.90;;;;;;5073434;28;20107;-61
2022/01/18 06:26:54;;;;;;;50.13;7.28;;;7.40;99.90;;;;;;5076775;28;20060;-60
2022/01/18 06:29:21;;;;;;;48.83;7.10;;;7.30;99.90;;;;;;5076165;28;20028;-61
2022/01/18 06:31:47;;;;;;;42.47;8.07;;;7.20;99.90;;;;;;5075858;28;20421;-61
2022/01/18 06:34:14;;;;;;;31.23;5.82;;;7.30;99.90;;;;;;5075672;28;20048;-61
2022/01/18 06:36:41;;;;;;;44.22;7.72;;;7.20;99.90;;;;;;5076100;28;20033;-61
2022/01/18 06:39:06;;;;;;;37.17;6.22;;;7.20;99.90;;;;;;5074255;28;20052;-61
2022/01/18 06:41:32;;;;;;;42.92;8.50;;;7.30;99.90;;;;;;5066409;28;20122;-61
2022/01/18 06:43:58;;;;;;;48.30;7.38;;;7.30;99.90;;;;;;5037710;28;20033;-61
2022/01/18 06:46:24;;;;;;;36.65;6.63;;;7.30;99.90;;;;;;5055953;28;20013;-61
2022/01/18 06:48:49;;;;;;;40.08;7.15;;;7.30;99.90;;;;;;5055494;28;20032;-60
2022/01/18 06:51:15;;;;;;;39.35;7.68;;;7.30;99.90;;;;;;5055973;28;20097;-61
2022/01/18 06:53:47;;;;;;;42.55;7.38;;;7.30;99.90;;;;;;5075142;28;20037;-59
2022/01/18 06:56:19;;;;;;;40.72;7.50;;;7.30;99.90;;;;;;5076169;28;20023;-63
2022/01/18 06:58:45;;;;;;;44.92;7.07;;;7.30;99.90;;;;;;5076340;28;20047;-62
2022/01/18 07:01:12;;;;;;;36.35;6.78;;;7.40;99.90;;;;;;5076532;28;20032;-61
2022/01/18 07:03:38;;;;;;;52.47;9.13;;;7.40;99.90;;;;;;5073198;28;20028;-59
2022/01/18 07:06:04;;;;;;;46.17;7.25;;;7.40;99.90;;;;;;5074098;28;20028;-60
2022/01/18 07:08:33;;;;;;;39.17;7.63;;;7.40;99.90;;;;;;5075555;28;20032;-59
2022/01/18 07:10:59;;;;;;;57.38;9.13;;;7.40;99.90;;;;;;5075604;28;20393;-59
2022/01/18 07:13:24;;;;;;;45.83;8.60;;;7.40;99.90;;;;;;5074999;28;20027;-58
2022/01/18 07:15:50;;;;;;;37.90;8.48;;;7.40;99.90;;;;;;5075227;28;20027;-59
2022/01/18 07:18:15;;;;;;;41.92;8.35;;;7.40;99.90;;;;;;5057438;28;20025;-61
2022/01/18 07:20:41;;;;;;;37.53;7.32;;;7.50;99.90;;;;;;5076425;28;20051;-61
2022/01/18 07:23:11;;;;;;;34.13;7.75;;;7.40;99.90;;;;;;5075506;28;20025;-61
2022/01/18 07:25:43;;;;;;;45.35;9.55;;;7.50;99.90;;;;;;5075818;28;20031;-61
2022/01/18 07:28:10;;;;;;;42.28;7.40;;;7.50;99.90;;;;;;5075910;28;20028;-61
2022/01/18 07:30:37;;;;;;;38.95;8.10;;;7.40;99.90;;;;;;5075291;28;20032;-62
2022/01/18 07:33:03;;;;;;;44.88;8.23;;;7.50;99.90;;;;;;5075397;28;20025;-62
2022/01/18 07:35:31;;;;;;;40.55;7.97;;;7.40;99.90;;;;;;5075224;28;20539;-60
2022/01/18 07:37:57;;;;;;;36.33;7.97;;;7.50;99.90;;;;;;5075742;28;20082;-60
2022/01/18 07:40:22;;;;;;;46.78;9.60;;;7.50;99.90;;;;;;5075395;28;20032;-62
2022/01/18 07:42:48;;;;;;;39.85;8.77;;;7.60;99.90;;;;;;5075412;28;20034;-61
2022/01/18 07:45:13;;;;;;;32.88;8.73;;;7.50;99.90;;;;;;5056824;28;20024;-61
2022/01/18 07:47:39;;;;;;;38.13;7.72;;;7.50;99.90;;;;;;5075643;28;20028;-60
2022/01/18 07:50:05;;;;;;;31.63;7.28;;;7.50;99.90;;;;;;5075050;28;20417;-61
2022/01/18 07:52:35;;;;;;;36.42;8.68;;;7.50;99.90;;;;;;5075170;28;20089;-61
2022/01/18 07:55:01;;;;;;;32.72;7.60;;;7.50;99.90;;;;;;5075368;28;20020;-62
2022/01/18 07:57:26;;;;;;;36.03;6.78;;;7.50;99.90;;;;;;5075018;28;20032;-62
2022/01/18 07:59:52;;;;;;;42.88;7.78;;;7.50;99.90;;;;;;5075054;28;20037;-62
2022/01/18 08:02:18;;;;;;;31.08;6.95;;;7.50;99.90;;;;;;5075024;28;20389;-61
2022/01/18 08:04:43;;;;;;;30.17;6.22;;;7.50;99.90;;;;;;5074860;28;20565;-61
2022/01/18 08:07:09;;;;;;;31.88;5.25;;;7.50;99.90;;;;;;5074959;28;20032;-62
2022/01/18 08:09:36;;;;;;;44.38;6.03;;;7.60;99.90;;;;;;5074714;28;20029;-61
2022/01/18 08:12:02;;;;;;;33.05;5.65;;;7.60;99.90;;;;;;5074545;28;20036;-61
2022/01/18 08:14:31;;;;;;;35.45;4.95;;;7.50;99.90;;;;;;5075018;28;20013;-61
2022/01/18 08:17:00;;;;;;;40.90;5.57;;;7.50;99.90;;;;;;5074111;28;20462;-61
2022/01/18 08:19:27;;;;;;;24.85;4.25;;;7.50;99.90;;;;;;5074413;28;20100;-61
2022/01/18 08:21:53;;;;;;;32.08;5.18;;;7.60;99.90;;;;;;5074121;28;20020;-61
2022/01/18 08:24:18;;;;;;;30.13;5.45;;;7.60;99.90;;;;;;5056303;28;20473;-60
2022/01/18 08:26:44;;;;;;;22.70;4.70;;;7.60;99.90;;;;;;5074139;28;20428;-62
2022/01/18 08:29:12;;;;;;;25.23;6.10;;;7.60;99.90;;;;;;5074260;28;20078;-61
2022/01/18 08:31:38;;;;;;;37.78;4.75;;;7.60;99.90;;;;;;5074309;28;20048;-61
2022/01/18 08:34:03;;;;;;;27.27;4.18;;;7.60;99.90;;;;;;5073952;28;20058;-60
2022/01/18 08:36:29;;;;;;;36.47;4.82;;;7.60;99.90;;;;;;5073916;28;20111;-61
2022/01/18 08:38:54;;;;;;;25.65;4.53;;;7.60;99.90;;;;;;5073970;28;20054;-60
2022/01/18 08:41:20;;;;;;;33.30;5.43;;;7.60;99.90;;;;;;5074020;28;20103;-61
2022/01/18 08:43:46;;;;;;;30.80;4.60;;;7.60;99.90;;;;;;5073553;28;20366;-61
2022/01/18 08:46:11;;;;;;;33.30;5.40;;;7.70;99.90;;;;;;5073913;28;20043;-61
2022/01/18 08:48:37;;;;;;;21.33;4.57;;;7.60;99.90;;;;;;5073589;28;20107;-61
2022/01/18 08:51:03;;;;;;;31.30;5.18;;;7.60;99.90;;;;;;5073758;28;20024;-61
2022/01/18 08:53:29;;;;;;;38.30;5.13;;;7.70;99.90;;;;;;5073224;28;20086;-61
2022/01/18 08:55:54;;;;;;;31.83;4.93;;;7.70;99.90;;;;;;5073436;28;20029;-61
2022/01/18 08:58:23;;;;;;;29.98;5.00;;;7.70;99.90;;;;;;5073829;28;20039;-61
2022/01/18 09:00:49;;;;;;;29.42;5.72;;;7.70;99.90;;;;;;5073984;28;20373;-60
2022/01/18 09:03:15;;;;;;;31.83;5.22;;;7.80;99.90;;;;;;5073237;28;20032;-61
2022/01/18 09:05:43;;;;;;;31.33;5.72;;;7.80;99.90;;;;;;5073405;28;20020;-61
2022/01/18 09:08:11;;;;;;;40.97;6.70;;;7.70;99.90;;;;;;5073502;28;20485;-60
2022/01/18 09:10:37;;;;;;;32.13;6.22;;;7.70;99.90;;;;;;5073711;28;20170;-60
2022/01/18 09:13:03;;;;;;;33.10;5.53;;;7.70;99.90;;;;;;5073773;28;20510;-60
2022/01/18 09:15:29;;;;;;;27.15;6.00;;;7.70;99.90;;;;;;5073417;28;20507;-60
2022/01/18 09:17:54;;;;;;;26.42;5.78;;;7.80;99.90;;;;;;5073584;28;20107;-61
2022/01/18 09:20:20;;;;;;;33.60;5.22;;;7.70;99.90;;;;;;5055165;28;20520;-61
2022/01/18 09:22:52;;;;;;;29.88;5.85;;;7.80;99.90;;;;;;5073319;28;20029;-60
2022/01/18 09:25:18;;;;;;;;;;;7.80;99.90;;;;;;5073638;28;20052;-60
2022/01/18 09:27:44;;;;;;;25.10;5.05;;;7.80;99.90;;;;;;5073234;28;19912;-61
2022/01/18 09:30:12;;;;;;;21.83;5.72;;;7.80;99.90;;;;;;5054872;28;20420;-61
2022/01/18 09:32:38;;;;;;;30.88;5.50;;;7.80;99.90;;;;;;5073225;28;20103;-61
2022/01/18 09:35:06;;;;;;;36.40;6.07;;;7.80;99.90;;;;;;5072959;28;20078;-61
2022/01/18 09:37:32;;;;;;;24.38;4.63;;;7.80;99.90;;;;;;5073285;28;20023;-61
2022/01/18 09:39:58;;;;;;;33.75;6.85;;;7.80;99.90;;;;;;5073201;28;20482;-61
2022/01/18 09:42:32;;;;;;;29.02;5.78;;;7.90;99.90;;;;;;5072655;28;20481;-60
2022/01/18 09:45:04;;;;;;;21.70;4.65;;;7.90;99.90;;;;;;5054954;28;20024;-61
2022/01/18 09:47:29;;;;;;;33.13;5.60;;;8.00;99.90;;;;;;5073838;28;20028;-61
2022/01/18 09:49:58;;;;;;;21.05;4.75;;;8.00;99.90;;;;;;5072999;28;20025;-61
2022/01/18 09:52:23;;;;;;;26.63;5.10;;;8.00;99.90;;;;;;5073107;28;20036;-61
2022/01/18 09:54:49;;;;;;;26.10;5.65;;;8.00;99.90;;;;;;5072704;28;20037;-60
2022/01/18 09:57:15;;;;;;;30.15;5.30;;;8.00;99.90;;;;;;5072939;28;20460;-61
2022/01/18 09:59:41;;;;;;;33.22;5.80;;;8.00;99.90;;;;;;5075539;28;20106;-61
2022/01/18 10:02:09;;;;;;;35.58;6.05;;;8.10;99.90;;;;;;5058540;28;20035;-60
2022/01/18 10:04:43;;;;;;;25.50;5.10;;;8.20;99.90;;;;;;5076826;28;20035;-61
2022/01/18 10:07:08;;;;;;;24.20;4.50;;;8.20;99.90;;;;;;5076738;28;20059;-61
2022/01/18 10:09:35;;;;;;;27.90;4.93;;;8.20;99.90;;;;;;5076368;28;20020;-61
2022/01/18 10:12:22;;;;;;;26.23;5.90;;;8.20;99.90;;;;;;5076507;28;20028;-61
2022/01/18 10:14:55;;;;;;;33.33;4.25;;;8.30;99.90;;;;;;5076435;28;20032;-62
2022/01/18 10:17:36;;;;;;;22.85;3.97;;;8.30;99.90;;;;;;5076547;28;20029;-61
2022/01/18 10:20:04;;;;;;;21.42;4.40;;;8.30;99.90;;;;;;5058428;28;20024;-61
2022/01/18 10:22:43;;;;;;;28.25;4.35;;;8.30;99.90;;;;;;5076472;28;20389;-61
2022/01/18 10:25:20;;;;;;;25.48;4.75;;;8.30;99.90;;;;;;5076282;28;20017;-60
2022/01/18 10:27:49;;;;;;;22.27;3.67;;;8.30;99.90;;;;;;5075984;28;20029;-61
2022/01/18 10:30:22;;;;;;;20.00;5.07;;;8.30;99.90;;;;;;5076073;28;20020;-61
2022/01/18 10:33:21;;;;;;;40.17;5.53;;;8.30;99.90;;;;;;5076246;28;20039;-59
2022/01/18 10:36:11;;;;;;;17.10;4.50;;;8.30;99.90;;;;;;5077328;28;20386;-61
2022/01/18 10:38:38;;;;;;;23.20;3.65;;;8.40;99.90;;;;;;5076413;28;20060;-60
2022/01/18 10:41:24;;;;;;;25.60;3.95;;;8.40;99.90;;;;;;5076686;28;20100;-60
2022/01/18 10:44:08;;;;;;;21.95;3.67;;;8.50;99.90;;;;;;5076553;28;20028;-61
2022/01/18 10:46:39;;;;;;;25.98;4.00;;;8.50;99.90;;;;;;5076406;28;20054;-61
2022/01/18 10:49:06;;;;;;;20.73;3.15;;;8.60;99.90;;;;;;5076467;28;20466;-61
2022/01/18 10:51:36;;;;;;;19.85;3.90;;;8.60;99.90;;;;;;5075867;28;20032;-59
2022/01/18 10:54:07;;;;;;;15.60;4.07;;;8.60;99.90;;;;;;5075976;28;20025;-60
2022/01/18 10:56:41;;;;;;;19.30;3.65;;;8.60;99.90;;;;;;5076002;28;20025;-60
2022/01/18 10:59:08;;;;;;;19.27;4.03;;;8.50;99.90;;;;;;5095756;22;20060;-69
2022/01/18 11:01:34;;;;;;;21.27;3.45;;;8.50;99.90;;;;;;5078954;28;20028;-68
2022/01/18 11:04:07;;;;;;;17.20;3.88;;;8.40;99.90;;;;;;5080892;28;20361;-68
2022/01/18 11:06:34;;;;;;;19.33;2.97;;;8.30;99.90;;;;;;5081490;28;20017;-70
2022/01/18 11:09:10;;;;;;;12.50;2.65;;;8.30;99.90;;;;;;5082514;28;20032;-69
2022/01/18 11:11:48;;;;;;;16.60;3.55;;;8.20;99.90;;;;;;5078453;28;20474;-69
2022/01/18 11:14:17;;;;;;;11.70;3.60;;;8.20;99.90;;;;;;5076846;28;20039;-69
2022/01/18 11:16:45;;;;;;;15.85;4.65;;;8.30;99.90;;;;;;5075068;28;20501;-69
2022/01/18 11:21:53;;;;;;;16.38;4.32;;;8.20;99.90;;;;;;5076598;28;20025;-69
2022/01/18 11:24:20;;;;;;;17.88;3.88;;;8.10;99.90;;;;;;5076364;28;20019;-68
2022/01/18 11:26:47;;;;;;;13.68;5.72;;;8.20;99.90;;;;;;5074931;28;20059;-69
2022/01/18 11:29:16;;;;;;;23.83;5.60;;;8.20;99.90;;;;;;5075805;28;20020;-68
2022/01/18 11:31:45;;;;;;;30.52;5.45;;;8.10;99.90;;;;;;5075921;28;20020;-69
2022/01/18 11:34:13;;;;;;;24.30;5.22;;;8.00;99.90;;;;;;5075746;28;20393;-69
2022/01/18 11:36:48;;;;;;;19.83;4.80;;;8.00;99.90;;;;;;5076007;28;20017;-68
2022/01/18 11:39:17;;;;;;;27.10;6.43;;;8.00;99.90;;;;;;5076423;28;20033;-69
2022/01/18 11:41:43;;;;;;;17.98;4.40;;;8.10;99.90;;;;;;5075549;28;20033;-69
2022/01/18 11:44:15;;;;;;;24.55;4.75;;;8.10;99.90;;;;;;5076069;28;20025;-69
2022/01/18 11:46:47;;;;;;;18.30;5.18;;;8.10;99.90;;;;;;5075783;28;20021;-69
2022/01/18 11:49:29;;;;;;;16.55;4.18;;;8.10;99.90;;;;;;5074550;28;20025;-69
2022/01/18 11:51:58;;;;;;;21.25;4.97;;;8.00;99.90;;;;;;5074545;28;20583;-69
2022/01/18 11:57:01;;;;;;;23.42;5.22;;;7.90;99.90;;;;;;5075851;28;20075;-68
2022/01/18 11:59:35;;;;;;;30.33;4.97;;;8.00;99.90;;;;;;5076074;28;20399;-68
2022/01/18 12:02:03;;;;;;;22.55;4.60;;;8.00;99.90;;;;;;5075619;28;20021;-68
2022/01/18 12:04:51;;;;;;;21.30;5.03;;;8.00;99.90;;;;;;5076237;28;20013;-68
2022/01/18 12:07:37;;;;;;;16.65;3.80;;;8.10;99.90;;;;;;5077851;28;20055;-69
2022/01/18 12:10:02;;;;;;;24.88;5.28;;;8.10;99.90;;;;;;5068670;28;20044;-69
2022/01/18 12:12:40;;;;;;;21.40;5.75;;;8.10;99.90;;;;;;5076207;28;20389;-68
2022/01/18 12:15:24;;;;;;;29.15;5.47;;;8.00;99.90;;;;;;5074358;28;20071;-68
2022/01/18 12:17:55;;;;;;;21.02;5.68;;;8.00;99.90;;;;;;5075851;28;20025;-68
2022/01/18 12:20:35;;;;;;;24.60;6.05;;;8.00;99.90;;;;;;5075518;28;20115;-68
2022/01/18 12:23:11;;;;;;;26.95;6.55;;;8.00;99.90;;;;;;5075688;28;20126;-69
2022/01/18 12:26:03;;;;;;;27.10;6.47;;;8.00;99.90;;;;;;5087750;28;20494;-68
2022/01/18 12:34:25;;;;;;;23.63;5.90;;;7.90;99.90;;;;;;5077096;28;20063;-69
2022/01/18 12:36:54;;;;;;;26.70;4.85;;;7.80;99.90;;;;;;5077591;28;20073;-70
2022/01/18 12:39:21;;;;;;;22.30;6.93;;;7.80;99.90;;;;;;5078417;28;20024;-69
2022/01/18 12:41:51;;;;;;;20.52;5.50;;;7.80;99.90;;;;;;5076688;28;20021;-70
2022/01/18 12:44:22;;;;;;;17.80;5.63;;;7.80;99.90;;;;;;5075862;28;20020;-70
2022/01/18 12:46:52;;;;;;;25.45;6.18;;;7.90;99.90;;;;;;5073484;28;20033;-70
2022/01/18 12:49:19;;;;;;;30.48;6.15;;;8.00;99.90;;;;;;5074771;28;20021;-70
2022/01/18 12:51:44;;;;;;;27.33;6.90;;;8.00;99.90;;;;;;5075573;28;20354;-70
2022/01/18 12:54:10;;;;;;;24.35;6.45;;;7.90;99.90;;;;;;5075320;28;20052;-70
2022/01/18 12:56:36;;;;;;;27.45;5.97;;;7.80;99.90;;;;;;5075119;28;20020;-70
2022/01/18 12:59:04;;;;;;;27.35;7.85;;;7.80;99.90;;;;;;5073550;28;20032;-70
2022/01/18 13:01:33;;;;;;;29.73;6.93;;;7.70;99.90;;;;;;5074938;28;20092;-70
2022/01/18 13:03:58;;;;;;;24.83;7.50;;;7.80;99.90;;;;;;5074974;28;20028;-70
2022/01/18 13:06:32;;;;;;;23.95;8.13;;;7.80;99.90;;;;;;5075323;28;20021;-70
2022/01/18 13:08:59;;;;;;;27.05;6.72;;;7.80;99.90;;;;;;5073935;28;20427;-70
2022/01/18 13:11:28;;;;;;;25.50;6.10;;;7.70;99.90;;;;;;5076018;28;20020;-70
2022/01/18 13:14:00;;;;;;;19.02;6.10;;;7.70;99.90;;;;;;5075075;28;20024;-70
2022/01/18 13:27:11;;;;;;;10.60;3.08;;;7.90;99.90;;;;;;5074673;28;20457;-70
2022/01/18 13:29:37;;;;;;;10.27;3.20;;;7.80;99.90;;;;;;5074844;28;20020;-71
2022/01/18 13:32:31;;;;;;;6.65;2.45;;;7.90;99.90;;;;;;5073208;28;20032;-70
2022/01/18 13:34:59;;;;;;;7.45;2.55;;;7.90;99.90;;;;;;5077861;28;20016;-70
2022/01/18 13:37:31;;;;;;;4.68;1.92;;;7.90;99.90;;;;;;5078250;28;20099;-70
2022/01/18 13:40:00;;;;;;;11.48;2.67;;;7.80;99.90;;;;;;5078564;28;20098;-70
2022/01/18 13:42:41;;;;;;;7.68;2.83;;;7.90;99.90;;;;;;5078750;28;20029;-70
2022/01/18 13:45:25;;;;;;;8.55;3.08;;;8.00;99.90;;;;;;5078440;28;20036;-70
2022/01/18 13:48:02;;;;;;;6.18;2.78;;;7.80;99.90;;;;;;5078377;28;20027;-71
2022/01/18 13:50:50;;;;;;;7.25;2.85;;;7.70;99.90;;;;;;5076942;28;20038;-71
2022/01/18 13:53:19;;;;;;;10.27;3.25;;;7.70;99.90;;;;;;5078742;28;20034;-70
2022/01/18 13:56:01;;;;;;;8.45;3.10;;;7.70;99.90;;;;;;5077757;28;20025;-68
2022/01/18 13:58:33;;;;;;;7.22;2.88;;;7.70;99.90;;;;;;5078769;28;20024;-70
2022/01/18 14:01:24;;;;;;;6.90;3.53;;;7.70;99.90;;;;;;5077931;28;20051;-69
2022/01/18 14:03:52;;;;;;;6.25;3.15;;;7.70;99.90;;;;;;5078630;28;20024;-69
2022/01/18 14:06:31;;;;;;;7.63;2.95;;;7.80;99.90;;;;;;5076693;28;20101;-69
2022/01/18 14:08:57;;;;;;;13.55;3.00;;;7.80;99.90;;;;;;5077794;28;20500;-69
2022/01/18 14:11:25;;;;;;;7.68;3.17;;;7.70;99.90;;;;;;5077707;28;20024;-70
2022/01/18 14:13:54;;;;;;;7.38;3.60;;;7.80;99.90;;;;;;5078618;28;20032;-70
2022/01/18 14:16:28;;;;;;;11.98;3.95;;;7.80;99.90;;;;;;5078459;28;20082;-69
2022/01/18 14:19:05;;;;;;;9.38;3.97;;;7.70;99.90;;;;;;5078381;28;20385;-69
2022/01/18 14:21:33;;;;;;;14.13;4.20;;;7.60;99.90;;;;;;5080399;28;20032;-69
2022/01/18 14:24:15;;;;;;;14.93;3.85;;;7.60;99.90;;;;;;5081248;28;20024;-69
2022/01/18 14:26:56;;;;;;;8.77;3.17;;;7.60;99.90;;;;;;5091190;28;20036;-69
2022/01/18 14:29:30;;;;;;;13.80;4.13;;;7.60;99.90;;;;;;5078716;28;20032;-69